createdAt,value
2018-08-28T00:03:05.950Z,22.07
2018-08-28T00:07:58.882Z,21.92
2018-08-28T00:12:52.114Z,21.79
2018-08-28T00:17:46.054Z,21.72
2018-08-28T00:22:39.142Z,21.72
2018-08-28T00:27:32.243Z,21.77
2018-08-28T00:32:25.218Z,21.82
2018-08-28T00:37:18.310Z,21.83
2018-08-28T00:42:11.387Z,21.79
2018-08-28T00:47:04.473Z,21.81
2018-08-28T00:51:57.422Z,21.75
2018-08-28T00:56:51.170Z,21.68
2018-08-28T01:01:44.252Z,21.64
2018-08-28T01:06:37.459Z,21.59
2018-08-28T01:11:30.543Z,21.62
2018-08-28T01:16:23.583Z,21.57
2018-08-28T01:21:16.490Z,21.64
2018-08-28T01:26:09.658Z,21.60
2018-08-28T01:31:02.748Z,21.47
2018-08-28T01:35:56.095Z,21.45
2018-08-28T01:40:49.185Z,21.47
2018-08-28T01:45:42.383Z,21.36
2018-08-28T01:50:35.462Z,21.38
2018-08-28T01:55:28.494Z,21.40
2018-08-28T02:00:21.748Z,21.41
2018-08-28T02:05:14.739Z,21.39
2018-08-28T02:10:07.914Z,21.38
2018-08-28T02:15:00.912Z,21.50
2018-08-28T02:19:53.833Z,21.59
2018-08-28T02:24:46.755Z,21.32
2018-08-28T02:29:39.857Z,21.40
2018-08-28T02:34:32.883Z,21.28
2018-08-28T02:39:25.818Z,21.52
2018-08-28T02:44:18.751Z,21.77
2018-08-28T02:49:11.855Z,22.07
2018-08-28T02:54:04.842Z,21.81
2018-08-28T02:58:57.899Z,22.00
2018-08-28T03:03:51.141Z,21.84
2018-08-28T03:08:44.162Z,21.78
2018-08-28T03:13:37.167Z,21.84
2018-08-28T03:18:30.157Z,21.83
2018-08-28T03:23:23.109Z,21.74
2018-08-28T03:28:17.016Z,21.78
2018-08-28T03:33:10.090Z,21.93
2018-08-28T03:38:03.220Z,22.03
2018-08-28T03:42:56.148Z,21.86
2018-08-28T03:47:49.110Z,22.01
2018-08-28T03:52:42.158Z,22.04
2018-08-28T03:57:35.170Z,22.04
2018-08-28T04:02:28.141Z,21.88
2018-08-28T04:07:21.229Z,22.04
2018-08-28T04:12:14.179Z,21.92
2018-08-28T04:17:07.217Z,21.97
2018-08-28T04:22:00.287Z,22.13
2018-08-28T04:26:53.348Z,22.26
2018-08-28T04:31:46.506Z,22.06
2018-08-28T04:36:39.510Z,21.86
2018-08-28T04:41:32.585Z,21.82
2018-08-28T04:46:25.560Z,21.93
2018-08-28T04:51:18.569Z,21.81
2018-08-28T04:56:11.584Z,21.74
2018-08-28T05:01:04.609Z,21.72
2018-08-28T05:05:57.847Z,21.88
2018-08-28T05:10:50.916Z,21.91
2018-08-28T05:15:43.966Z,22.10
2018-08-28T05:20:37.004Z,21.99
2018-08-28T05:25:31.246Z,22.05
2018-08-28T05:30:24.472Z,22.35
2018-08-28T05:35:17.727Z,22.41
2018-08-28T05:40:10.791Z,22.44
2018-08-28T05:45:04.034Z,22.38
2018-08-28T05:49:57.216Z,22.41
2018-08-28T05:54:50.361Z,22.36
2018-08-28T05:59:43.345Z,22.15
2018-08-28T06:04:36.608Z,22.01
2018-08-28T06:09:29.714Z,21.83
2018-08-28T06:14:22.902Z,21.89
2018-08-28T06:19:15.998Z,21.91
2018-08-28T06:24:08.974Z,22.17
2018-08-28T06:29:01.907Z,22.10
2018-08-28T06:33:54.976Z,22.30
2018-08-28T06:38:47.953Z,22.30
2018-08-28T06:43:41.030Z,22.13
2018-08-28T06:48:34.949Z,22.09
2018-08-28T06:53:28.015Z,22.00
2018-08-28T06:58:21.066Z,21.95
2018-08-28T07:03:14.111Z,22.12
2018-08-28T07:08:07.527Z,22.33
2018-08-28T07:13:00.591Z,22.59
2018-08-28T07:17:53.574Z,22.59
2018-08-28T07:22:46.694Z,22.89
2018-08-28T07:27:39.814Z,23.08
2018-08-28T07:32:32.958Z,23.36
2018-08-28T07:37:26.054Z,23.12
2018-08-28T07:42:19.026Z,23.26
2018-08-28T07:47:12.044Z,23.54
2018-08-28T07:52:05.307Z,23.23
2018-08-28T07:56:58.348Z,23.27
2018-08-28T08:01:51.563Z,23.35
2018-08-28T08:06:44.809Z,23.57
2018-08-28T08:11:37.775Z,23.58
2018-08-28T08:16:30.989Z,23.59
2018-08-28T08:21:24.999Z,23.67
2018-08-28T08:26:18.619Z,23.81
2018-08-28T08:31:12.117Z,23.74
2018-08-28T08:36:05.244Z,23.71
2018-08-28T08:40:58.404Z,23.85
2018-08-28T08:45:51.565Z,24.13
2018-08-28T08:50:44.943Z,24.34
2018-08-28T08:55:37.985Z,24.67
2018-08-28T09:00:30.987Z,24.92
2018-08-28T09:05:24.140Z,24.79
2018-08-28T09:10:17.732Z,25.11
2018-08-28T09:15:11.404Z,25.11
2018-08-28T09:20:04.707Z,25.27
2018-08-28T09:24:58.113Z,25.02
2018-08-28T09:29:51.124Z,25.20
2018-08-28T09:34:44.066Z,25.20
2018-08-28T09:39:37.203Z,25.48
2018-08-28T09:44:30.251Z,25.55
2018-08-28T09:49:23.538Z,25.58
2018-08-28T09:54:16.518Z,25.68
2018-08-28T09:59:09.534Z,25.64
2018-08-28T10:04:02.564Z,25.93
2018-08-28T10:08:57.712Z,26.10
2018-08-28T10:13:50.677Z,26.15
2018-08-28T10:18:43.716Z,26.37
2018-08-28T10:23:36.858Z,26.50
2018-08-28T10:28:30.027Z,26.56
2018-08-28T10:33:23.064Z,26.43
2018-08-28T10:38:16.537Z,26.38
2018-08-28T10:43:09.689Z,26.39
2018-08-28T10:48:02.819Z,26.21
2018-08-28T10:52:56.238Z,26.15
2018-08-28T10:57:49.691Z,26.31
2018-08-28T11:02:43.249Z,26.60
2018-08-28T11:07:36.504Z,26.55
2018-08-28T11:12:29.538Z,26.23
2018-08-28T11:17:26.917Z,26.10
2018-08-28T11:22:20.126Z,26.01
2018-08-28T11:27:13.238Z,25.96
2018-08-28T11:32:06.288Z,26.04
2018-08-28T11:36:59.683Z,26.21
2018-08-28T11:41:52.806Z,26.50
2018-08-28T11:46:45.891Z,26.50
2018-08-28T11:51:38.863Z,26.42
2018-08-28T11:56:31.942Z,25.96
2018-08-28T12:01:25.013Z,25.84
2018-08-28T12:06:18.239Z,25.63
2018-08-28T12:11:11.346Z,25.74
2018-08-28T12:16:04.487Z,26.07
2018-08-28T12:20:58.244Z,25.97
2018-08-28T12:25:51.609Z,26.15
2018-08-28T12:30:45.261Z,26.19
2018-08-28T12:35:38.394Z,26.34
2018-08-28T12:40:31.839Z,26.13
2018-08-28T12:45:24.820Z,26.27
2018-08-28T12:50:17.941Z,26.30
2018-08-28T12:55:11.449Z,26.25
2018-08-28T13:00:05.080Z,25.89
2018-08-28T13:04:58.373Z,25.78
2018-08-28T13:09:51.509Z,25.75
2018-08-28T13:14:44.553Z,25.63
2018-08-28T13:19:38.083Z,25.87
2018-08-28T13:24:31.263Z,25.98
2018-08-28T13:29:24.305Z,25.90
2018-08-28T13:34:17.438Z,26.06
2018-08-28T13:39:10.487Z,26.33
2018-08-28T13:44:10.354Z,26.45
2018-08-28T13:49:03.713Z,26.61
2018-08-28T13:53:57.701Z,26.75
2018-08-28T13:58:50.829Z,26.82
2018-08-28T14:03:53.278Z,26.84
2018-08-28T14:08:48.464Z,26.66
2018-08-28T14:13:41.788Z,26.52
2018-08-28T14:18:34.938Z,26.41
2018-08-28T14:23:29.420Z,26.33
2018-08-28T14:28:22.399Z,26.24
2018-08-28T14:33:15.520Z,25.99
2018-08-28T14:38:09.579Z,25.57
2018-08-28T14:43:02.601Z,25.46
2018-08-28T14:47:56.300Z,25.40
2018-08-28T14:52:49.414Z,25.35
2018-08-28T14:57:42.641Z,25.29
2018-08-28T15:02:35.744Z,25.29
2018-08-28T15:07:28.824Z,25.22
2018-08-28T15:12:21.893Z,25.22
2018-08-28T15:17:15.654Z,25.27
2018-08-28T15:22:08.756Z,25.21
2018-08-28T15:27:01.993Z,25.07
2018-08-28T15:31:55.053Z,24.99
2018-08-28T15:36:48.196Z,25.02
2018-08-28T15:41:41.249Z,24.76
2018-08-28T15:46:34.473Z,24.73
2018-08-28T15:51:27.817Z,24.72
2018-08-28T15:56:20.799Z,24.97
2018-08-28T16:01:13.896Z,24.70
2018-08-28T16:06:06.995Z,24.61
2018-08-28T16:11:00.057Z,24.59
2018-08-28T16:15:53.347Z,24.55
2018-08-28T16:20:46.555Z,24.56
2018-08-28T16:25:39.797Z,24.52
2018-08-28T16:30:32.843Z,24.42
2018-08-28T16:35:25.926Z,24.36
2018-08-28T16:40:19.106Z,24.18
2018-08-28T16:45:12.372Z,24.13
2018-08-28T16:50:05.771Z,24.04
2018-08-28T16:54:58.979Z,23.92
2018-08-28T16:59:52.192Z,23.83
2018-08-28T17:04:45.351Z,23.77
2018-08-28T17:09:38.352Z,23.67
2018-08-28T17:14:31.583Z,23.68
2018-08-28T17:19:24.628Z,23.65
2018-08-28T17:24:17.884Z,23.59
2018-08-28T17:29:10.990Z,23.60
2018-08-28T17:34:03.999Z,23.59
2018-08-28T17:38:57.461Z,23.63
2018-08-28T17:43:50.923Z,23.71
2018-08-28T17:48:44.632Z,23.79
2018-08-28T17:53:37.801Z,23.78
2018-08-28T17:58:33.016Z,23.73
2018-08-28T18:03:26.115Z,23.70
2018-08-28T18:08:19.204Z,23.76
2018-08-28T18:13:12.311Z,23.78
2018-08-28T18:18:05.336Z,23.72
2018-08-28T18:22:58.518Z,23.73
2018-08-28T18:27:51.616Z,23.69
2018-08-28T18:32:44.675Z,23.68
2018-08-28T18:37:37.866Z,23.56
2018-08-28T18:42:30.935Z,23.56
2018-08-28T18:47:25.201Z,23.59
2018-08-28T18:52:18.313Z,23.55
2018-08-28T18:57:11.361Z,23.53
2018-08-28T19:02:04.555Z,23.57
2018-08-28T19:06:57.666Z,23.54
2018-08-28T19:11:50.686Z,23.50
2018-08-28T19:16:43.858Z,23.57
2018-08-28T19:21:36.951Z,23.60
2018-08-28T19:26:30.104Z,23.61
2018-08-28T19:31:23.194Z,23.58
2018-08-28T19:36:16.586Z,23.62
2018-08-28T19:41:09.605Z,23.52
2018-08-28T19:46:02.795Z,23.58
2018-08-28T19:50:55.815Z,23.52
2018-08-28T19:55:48.795Z,23.46
2018-08-28T20:00:41.844Z,23.53
2018-08-28T20:05:34.912Z,23.46
2018-08-28T20:10:28.036Z,23.43
2018-08-28T20:15:22.809Z,23.41
2018-08-28T20:20:15.867Z,23.45
2018-08-28T20:25:09.002Z,23.45
2018-08-28T20:30:02.228Z,23.53
2018-08-28T20:34:55.565Z,23.71
2018-08-28T20:39:48.676Z,23.67
2018-08-28T20:44:41.754Z,23.70
2018-08-28T20:49:34.971Z,23.67
2018-08-28T20:54:28.066Z,23.68
2018-08-28T20:59:21.141Z,23.82
2018-08-28T21:04:14.190Z,23.82
2018-08-28T21:09:07.819Z,23.84
2018-08-28T21:14:00.954Z,24.02
2018-08-28T21:18:54.143Z,24.17
2018-08-28T21:23:47.243Z,24.23
2018-08-28T21:28:40.441Z,24.29
2018-08-28T21:33:33.553Z,24.29
2018-08-28T21:38:26.697Z,24.17
2018-08-28T21:43:19.772Z,24.11
2018-08-28T21:48:12.941Z,24.07
2018-08-28T21:53:06.135Z,24.09
2018-08-28T21:57:59.305Z,24.03
2018-08-28T22:02:52.321Z,24.08
2018-08-28T22:07:45.297Z,24.03
2018-08-28T22:12:38.385Z,24.23
2018-08-28T22:17:31.622Z,24.31
2018-08-28T22:22:24.725Z,24.32
2018-08-28T22:27:17.835Z,24.29
2018-08-28T22:32:10.944Z,24.10
2018-08-28T22:37:04.123Z,23.97
2018-08-28T22:41:57.262Z,23.91
2018-08-28T22:46:50.287Z,23.76
2018-08-28T22:51:43.367Z,23.60
2018-08-28T22:56:36.432Z,23.65
2018-08-28T23:01:29.472Z,23.60
2018-08-28T23:06:22.781Z,23.51
2018-08-28T23:11:15.857Z,23.75
2018-08-28T23:16:10.838Z,23.61
2018-08-28T23:21:03.954Z,23.48
2018-08-28T23:25:56.943Z,23.57
2018-08-28T23:30:50.192Z,23.60
2018-08-28T23:35:43.299Z,23.58
2018-08-28T23:40:36.282Z,23.66
2018-08-28T23:45:29.252Z,23.93
2018-08-28T23:50:22.308Z,23.90
2018-08-28T23:55:15.289Z,23.82
